Time;durP1;ratioP1;P1;durP2;ratioP2;P2;SDS_P1;SDS_P2;PMS_P1;PMS_P2;Temp;Humidity;BMP_temperature;BMP_pressure;BME280_temperature;BME280_humidity;BME280_pressure;Samples;Min_cycle;Max_cycle;Signal;HPM_P1;HPM_P2
2022/04/03 00:01:31;;;;;;;0.28;0.28;;;;;;;3.24;57.28;102528.34;5094002;27;122092;-35
2022/04/03 00:03:57;;;;;;;0.60;0.60;;;;;;;3.26;56.98;102531.91;5095452;27;107884;-36
2022/04/03 00:06:22;;;;;;;1.15;0.77;;;;;;;3.28;57.13;102524.75;5095389;27;97895;-35
2022/04/03 00:08:48;;;;;;;0.22;0.20;;;;;;;3.30;57.29;102528.34;5095475;27;97770;-35
2022/04/03 00:11:13;;;;;;;0.70;0.60;;;;;;;3.27;56.93;102520.31;5094656;27;96737;-35
2022/04/03 00:13:38;;;;;;;1.10;0.77;;;;;;;3.33;56.72;102522.06;5094095;27;124834;-35
2022/04/03 00:16:05;;;;;;;1.27;0.90;;;;;;;3.36;57.33;102531.00;5095446;27;97385;-35
2022/04/03 00:18:30;;;;;;;0.70;0.52;;;;;;;3.24;57.34;102509.59;5076562;27;100776;-35
2022/04/03 00:20:56;;;;;;;7.75;1.45;;;;;;;3.32;58.85;102526.53;5095169;27;96514;-35
2022/04/03 00:23:23;;;;;;;0.35;0.20;;;;;;;3.18;58.11;102504.28;5095339;27;96765;-35
2022/04/03 00:25:49;;;;;;;0.40;0.32;;;;;;;3.22;58.27;102516.78;5095095;27;97970;-35
2022/04/03 00:28:15;;;;;;;0.30;0.30;;;;;;;3.25;58.99;102522.09;5076812;27;101242;-35
2022/04/03 00:30:41;;;;;;;0.50;0.30;;;;;;;3.26;58.99;102520.31;5095073;27;96429;-35
2022/04/03 00:33:06;;;;;;;0.80;0.45;;;;;;;3.24;59.12;102520.31;5095260;27;96745;-35
2022/04/03 00:35:32;;;;;;;0.93;0.77;;;;;;;3.21;59.90;102519.44;5094221;27;99413;-35
2022/04/03 00:37:57;;;;;;;0.25;0.10;;;;;;;3.18;58.38;102521.25;5076230;27;100735;-35
2022/04/03 00:40:26;;;;;;;0.28;0.28;;;;;;;3.09;58.96;102520.38;5095377;27;96642;-35
2022/04/03 00:42:51;;;;;;;0.40;0.40;;;;;;;3.05;60.29;102516.84;5076262;27;96855;-35
2022/04/03 00:45:17;;;;;;;0.73;0.43;;;;;;;2.94;60.14;102499.91;5094572;27;99614;-35
2022/04/03 00:47:42;;;;;;;0.25;0.25;;;;;;;2.90;61.40;102500.81;5094834;27;97839;-36
2022/04/03 00:50:08;;;;;;;0.43;0.38;;;;;;;2.84;60.94;102498.19;5094895;27;96589;-35
2022/04/03 00:52:33;;;;;;;1.13;0.80;;;;;;;2.87;60.88;102506.19;5076541;27;96864;-35
2022/04/03 00:54:59;;;;;;;0.35;0.35;;;;;;;2.81;61.23;102508.88;5094513;27;99409;-35
2022/04/03 00:57:26;;;;;;;0.63;0.38;;;;;;;2.72;61.25;102502.66;5094355;27;98839;-35
2022/04/03 00:59:53;;;;;;;0.75;0.65;;;;;;;2.73;61.96;102504.41;5075660;27;96996;-35
2022/04/03 01:02:18;;;;;;;0.63;0.30;;;;;;;2.59;62.74;102503.56;5075739;27;96762;-35
2022/04/03 01:04:44;;;;;;;2.45;0.88;;;;;;;2.55;62.12;102500.00;5094051;27;104410;-35
2022/04/03 01:07:09;;;;;;;5.10;0.90;;;;;;;2.58;62.68;102511.59;5075767;27;101038;-35
2022/04/03 01:09:36;;;;;;;3.17;0.85;;;;;;;2.47;63.05;102515.16;5094222;27;110974;-35
2022/04/03 01:12:01;;;;;;;0.52;0.38;;;;;;;2.41;63.40;102496.47;5092860;27;96724;-35
2022/04/03 01:14:37;;;;;;;0.75;0.68;;;;;;;2.41;63.75;102512.50;5094241;27;99540;-35
2022/04/03 01:17:04;;;;;;;0.30;0.30;;;;;;;2.40;63.28;102517.84;5075793;27;100783;-35
2022/04/03 01:19:29;;;;;;;0.00;0.00;;;;;;;2.33;63.35;102495.56;5075743;27;96719;-35
2022/04/03 01:21:55;;;;;;;1.55;0.73;;;;;;;2.32;63.63;102504.50;5094422;27;96852;-35
2022/04/03 01:24:22;;;;;;;1.85;0.75;;;;;;;2.30;63.92;102511.63;5074966;27;101058;-35
2022/04/03 01:26:48;;;;;;;0.22;0.22;;;;;;;2.27;63.28;102501.81;5075514;27;100899;-35
2022/04/03 01:29:15;;;;;;;0.38;0.28;;;;;;;2.28;63.33;102508.06;5075734;27;96538;-35
2022/04/03 01:31:41;;;;;;;0.40;0.40;;;;;;;2.20;64.08;102499.16;5075561;27;96807;-35
2022/04/03 01:34:07;;;;;;;1.08;0.65;;;;;;;2.14;64.54;102497.34;5075290;27;98804;-35
2022/04/03 01:36:32;;;;;;;0.13;0.13;;;;;;;2.08;65.05;102506.28;5093743;27;99121;-35
2022/04/03 01:38:57;;;;;;;0.98;0.73;;;;;;;2.08;64.09;102506.28;5093987;27;98486;-35
2022/04/03 01:41:22;;;;;;;0.10;0.10;;;;;;;2.06;64.93;102508.06;5093709;27;119113;-35
2022/04/03 01:43:48;;;;;;;1.70;0.63;;;;;;;1.97;64.46;102494.69;5093463;27;111728;-35
2022/04/03 01:46:13;;;;;;;0.77;0.38;;;;;;;1.99;64.34;102492.91;5093844;27;97749;-35
2022/04/03 01:48:38;;;;;;;1.85;1.05;;;;;;;1.96;65.08;102495.59;5093439;27;98601;-35
2022/04/03 01:51:04;;;;;;;2.00;0.57;;;;;;;1.83;65.46;102493.78;5093798;27;96880;-35
2022/04/03 01:53:29;;;;;;;0.50;0.32;;;;;;;1.77;64.65;102485.78;5092869;27;122261;-35
2022/04/03 01:56:03;;;;;;;0.22;0.22;;;;;;;1.75;65.37;102487.53;5093840;27;97901;-35
2022/04/03 01:58:29;;;;;;;3.45;0.93;;;;;;;1.71;65.79;102494.66;5074968;27;96808;-36
2022/04/03 02:00:55;;;;;;;3.22;1.15;;;;;;;1.67;66.00;102495.56;5075140;27;96696;-35
2022/04/03 02:03:20;;;;;;;0.65;0.30;;;;;;;1.60;65.80;102481.28;5093808;27;98079;-35
2022/04/03 02:05:45;;;;;;;0.45;0.25;;;;;;;1.58;66.05;102490.19;5093880;27;97627;-35
2022/04/03 02:08:11;;;;;;;1.30;0.80;;;;;;;1.44;66.04;102464.34;5093243;27;110455;-35
2022/04/03 02:10:36;;;;;;;1.20;0.70;;;;;;;1.61;66.43;102493.75;5092932;27;96839;-35
2022/04/03 02:13:02;;;;;;;0.25;0.25;;;;;;;1.52;66.97;102475.03;5092782;27;99517;-35
2022/04/03 02:15:27;;;;;;;0.05;0.05;;;;;;;1.44;66.97;102475.00;5092973;27;99113;-35
2022/04/03 02:17:52;;;;;;;0.32;0.32;;;;;;;1.34;66.60;102472.34;5092782;27;106698;-35
2022/04/03 02:20:17;;;;;;;0.20;0.20;;;;;;;1.45;67.05;102491.91;5092310;27;123213;-35
2022/04/03 02:22:43;;;;;;;0.35;0.28;;;;;;;1.46;66.47;102488.38;5093527;27;98538;-35
2022/04/03 02:25:09;;;;;;;1.00;0.55;;;;;;;1.42;66.39;102483.91;5096077;27;126841;-35
2022/04/03 02:27:36;;;;;;;0.20;0.20;;;;;;;1.51;65.63;102491.06;5078465;27;96651;-35
2022/04/03 02:30:03;;;;;;;0.63;0.50;;;;;;;1.51;65.50;102489.28;5078753;27;96838;-35
2022/04/03 02:32:29;;;;;;;0.17;0.17;;;;;;;1.54;65.34;102486.59;5096931;27;100570;-35
2022/04/03 02:34:54;;;;;;;1.25;0.30;;;;;;;1.51;65.63;102481.28;5095682;27;128438;-35
2022/04/03 02:37:19;;;;;;;1.27;0.73;;;;;;;1.57;65.66;102483.06;5095373;27;122835;-35
2022/04/03 02:39:45;;;;;;;0.98;0.52;;;;;;;1.57;65.48;102491.06;5096026;27;121628;-35
2022/04/03 02:42:10;;;;;;;0.47;0.47;;;;;;;1.50;65.51;102474.13;5096617;27;99347;-35
2022/04/03 02:44:36;;;;;;;0.75;0.57;;;;;;;1.46;65.91;102475.03;5077861;27;100840;-35
2022/04/03 02:47:02;;;;;;;1.65;0.77;;;;;;;1.49;65.85;102475.03;5096538;27;96527;-35
2022/04/03 02:49:27;;;;;;;0.55;0.50;;;;;;;1.42;65.91;102466.09;5096760;27;96801;-35
2022/04/03 02:51:52;;;;;;;1.35;0.85;;;;;;;1.55;65.84;102485.75;5095207;27;128719;-35
2022/04/03 02:54:18;;;;;;;0.20;0.20;;;;;;;1.45;65.97;102476.81;5096726;27;99267;-35
2022/04/03 02:56:43;;;;;;;0.70;0.47;;;;;;;1.46;66.10;102485.72;5096064;27;108421;-35
2022/04/03 02:59:08;;;;;;;0.35;0.30;;;;;;;1.38;66.59;102476.78;5095501;27;121242;-35
2022/04/03 03:01:34;;;;;;;0.90;0.77;;;;;;;1.36;66.65;102487.47;5096172;27;98364;-35
2022/04/03 03:03:59;;;;;;;0.55;0.25;;;;;;;1.31;66.85;102489.25;5096104;27;99161;-35
2022/04/03 03:06:24;;;;;;;0.20;0.20;;;;;;;1.20;66.60;102475.84;5076885;27;121997;-35
2022/04/03 03:08:50;;;;;;;0.10;0.10;;;;;;;1.20;67.05;102477.63;5096401;27;96619;-35
2022/04/03 03:11:16;;;;;;;0.22;0.13;;;;;;;1.27;66.80;102504.34;5095571;27;99458;-35
2022/04/03 03:13:41;;;;;;;0.80;0.30;;;;;;;1.23;66.59;102494.53;5095806;27;99274;-35
2022/04/03 03:16:07;;;;;;;0.05;0.05;;;;;;;1.27;66.53;102500.78;5096415;27;96501;-35
2022/04/03 03:18:33;;;;;;;0.43;0.43;;;;;;;1.16;66.04;102483.81;5096563;27;96570;-35
2022/04/03 03:20:58;;;;;;;0.47;0.47;;;;;;;1.23;66.60;102504.31;5096315;27;97457;-35
2022/04/03 03:23:24;;;;;;;0.40;0.40;;;;;;;1.19;66.71;102497.16;5094778;27;127885;-35
2022/04/03 03:25:49;;;;;;;1.50;0.82;;;;;;;1.17;66.47;102502.53;5095508;27;96597;-35
2022/04/03 03:28:15;;;;;;;0.30;0.30;;;;;;;1.12;66.48;102493.63;5095910;27;96803;-35
2022/04/03 03:30:40;;;;;;;0.60;0.60;;;;;;;1.12;66.34;102495.34;5096177;27;97818;-35
2022/04/03 03:33:06;;;;;;;0.40;0.40;;;;;;;1.08;66.67;102486.47;5095351;27;114756;-35
2022/04/03 03:35:33;;;;;;;0.55;0.47;;;;;;;1.00;66.39;102477.53;5076331;27;96697;-35
2022/04/03 03:37:59;;;;;;;0.15;0.15;;;;;;;1.10;66.83;102491.78;5095779;27;96516;-35
2022/04/03 03:40:24;;;;;;;0.43;0.43;;;;;;;1.05;67.09;102482.00;5096325;27;97279;-35
2022/04/03 03:42:49;;;;;;;0.57;0.55;;;;;;;1.06;66.79;102494.47;5095939;27;101385;-35
2022/04/03 03:45:15;;;;;;;0.50;0.50;;;;;;;1.04;66.57;102500.69;5095151;27;115401;-35
2022/04/03 03:47:45;;;;;;;0.15;0.15;;;;;;;1.00;66.79;102489.13;5077298;27;96910;-35
2022/04/03 03:50:12;;;;;;;0.40;0.40;;;;;;;0.92;67.99;102481.94;5094852;27;99282;-35
2022/04/03 03:52:37;;;;;;;0.10;0.10;;;;;;;0.95;67.94;102490.84;5076962;27;100918;-35
2022/04/03 03:55:03;;;;;;;1.30;0.70;;;;;;;0.90;68.35;102494.38;5095702;27;96515;-35
2022/04/03 03:57:28;;;;;;;0.85;0.22;;;;;;;0.85;68.61;102489.03;5095389;27;96852;-35
2022/04/03 03:59:53;;;;;;;0.63;0.52;;;;;;;0.84;68.77;102498.81;5094592;27;127134;-35
2022/04/03 04:02:19;;;;;;;0.77;0.35;;;;;;;0.75;68.74;102488.09;5094539;27;127181;-35
2022/04/03 04:04:44;;;;;;;0.35;0.28;;;;;;;0.70;68.80;102484.50;5095216;27;96655;-35
2022/04/03 04:07:10;;;;;;;0.50;0.50;;;;;;;0.71;68.61;102496.06;5096121;27;96781;-35
2022/04/03 04:09:35;;;;;;;1.75;1.35;;;;;;;0.68;68.81;102485.38;5095480;27;98132;-35
2022/04/03 04:12:00;;;;;;;0.77;0.50;;;;;;;0.71;69.26;102494.28;5094029;27;126773;-35
2022/04/03 04:14:26;;;;;;;0.60;0.40;;;;;;;0.67;69.19;102504.91;5094820;27;96491;-35
2022/04/03 04:16:51;;;;;;;0.43;0.30;;;;;;;0.67;68.55;102512.91;5094114;27;124643;-35
2022/04/03 04:19:16;;;;;;;0.75;0.52;;;;;;;0.56;69.01;102491.53;5094065;27;127193;-35
2022/04/03 04:21:42;;;;;;;0.17;0.17;;;;;;;0.58;68.84;102508.44;5094614;27;115199;-35
2022/04/03 04:24:07;;;;;;;3.58;0.90;;;;;;;0.55;68.75;102500.38;5076679;27;96692;-35
2022/04/03 04:26:33;;;;;;;0.00;0.00;;;;;;;0.54;68.89;102494.16;5094667;27;109219;-35
2022/04/03 04:28:58;;;;;;;0.93;0.50;;;;;;;0.60;69.60;102512.88;5076431;27;97947;-35
2022/04/03 04:31:23;;;;;;;0.70;0.45;;;;;;;0.54;69.71;102504.84;5095510;27;97692;-35
2022/04/03 04:33:49;;;;;;;1.70;0.52;;;;;;;0.49;69.04;102503.03;5094121;27;121960;-35
2022/04/03 04:36:14;;;;;;;0.30;0.30;;;;;;;0.58;69.37;102516.44;5094220;27;121710;-35
2022/04/03 04:38:40;;;;;;;0.20;0.20;;;;;;;0.54;69.38;102526.16;5094440;27;97928;-35
2022/04/03 04:41:05;;;;;;;0.75;0.35;;;;;;;0.53;69.15;102519.06;5094923;27;97902;-35
2022/04/03 04:43:31;;;;;;;0.40;0.35;;;;;;;0.52;69.51;102525.25;5095202;27;96604;-35
2022/04/03 04:45:56;;;;;;;0.10;0.10;;;;;;;0.48;70.18;102519.88;5093859;27;120403;-35
2022/04/03 04:48:22;;;;;;;1.30;0.30;;;;;;;0.37;69.69;102518.03;5076050;27;100789;-35
2022/04/03 04:50:47;;;;;;;0.20;0.20;;;;;;;0.45;69.92;102525.22;5094577;27;97464;-35
2022/04/03 04:53:12;;;;;;;0.80;0.45;;;;;;;0.35;69.91;102518.91;5094346;27;110134;-35
2022/04/03 04:55:39;;;;;;;1.23;0.77;;;;;;;0.35;70.65;102519.81;5095186;27;96725;-35
2022/04/03 04:58:04;;;;;;;0.20;0.20;;;;;;;0.29;70.36;102513.56;5094338;27;97474;-35
2022/04/03 05:00:30;;;;;;;0.50;0.50;;;;;;;0.38;70.21;102527.84;5094666;27;97938;-35
2022/04/03 05:02:55;;;;;;;0.77;0.65;;;;;;;0.38;69.98;102525.19;5094105;27;96582;-35
2022/04/03 05:05:22;;;;;;;0.80;0.77;;;;;;;0.28;70.76;102511.75;5094428;27;96744;-34
2022/04/03 05:07:51;;;;;;;0.17;0.17;;;;;;;0.28;70.30;102520.63;5075759;27;100713;-35
2022/04/03 05:10:17;;;;;;;0.63;0.63;;;;;;;0.27;71.38;102513.53;5093478;27;99157;-35
2022/04/03 05:12:43;;;;;;;0.17;0.17;;;;;;;0.19;70.71;102504.56;5094523;27;96556;-35
2022/04/03 05:15:11;;;;;;;0.30;0.17;;;;;;;0.24;70.86;102520.59;5075904;27;96837;-35
2022/04/03 05:17:38;;;;;;;0.25;0.25;;;;;;;0.18;71.40;102518.78;5075521;27;100982;-35
2022/04/03 05:20:03;;;;;;;0.90;0.68;;;;;;;0.17;71.10;102527.66;5094550;27;97644;-35
2022/04/03 05:22:29;;;;;;;0.40;0.40;;;;;;;0.14;71.43;102512.56;5094463;27;96592;-35
2022/04/03 05:24:55;;;;;;;0.28;0.28;;;;;;;0.18;70.91;102525.00;5075474;27;96745;-35
2022/04/03 05:27:20;;;;;;;0.20;0.20;;;;;;;0.20;70.34;102525.03;5093446;27;99168;-35
2022/04/03 05:29:46;;;;;;;1.27;0.63;;;;;;;0.18;70.79;102516.13;5094213;27;97234;-35
2022/04/03 05:32:12;;;;;;;0.65;0.35;;;;;;;0.17;70.18;102514.34;5094575;27;96492;-35
2022/04/03 05:34:38;;;;;;;1.23;0.88;;;;;;;0.13;70.39;102501.88;5093981;27;96866;-35
2022/04/03 05:37:03;;;;;;;0.10;0.10;;;;;;;0.14;70.65;102504.56;5075289;27;101018;-35
2022/04/03 05:39:29;;;;;;;0.20;0.20;;;;;;;0.17;71.03;102509.91;5093884;27;97723;-35
2022/04/03 05:41:55;;;;;;;0.60;0.35;;;;;;;0.24;70.14;102513.53;5094257;27;96654;-35
2022/04/03 05:44:21;;;;;;;0.20;0.20;;;;;;;0.15;70.14;102501.00;5094127;27;96808;-35
2022/04/03 05:46:47;;;;;;;0.60;0.60;;;;;;;0.19;71.14;102512.56;5094208;27;97361;-35
2022/04/03 05:49:12;;;;;;;0.22;0.22;;;;;;;0.22;70.67;102507.28;5093514;27;99142;-35
2022/04/03 05:51:38;;;;;;;0.52;0.52;;;;;;;0.18;70.67;102497.47;5092279;27;123061;-35
2022/04/03 05:54:03;;;;;;;0.80;0.70;;;;;;;0.22;70.81;102511.72;5093517;27;96858;-35
2022/04/03 05:56:31;;;;;;;0.15;0.15;;;;;;;0.17;70.99;102503.69;5074959;27;100908;-35
2022/04/03 05:58:56;;;;;;;0.85;0.57;;;;;;;0.27;70.39;102520.66;5074100;27;100923;-35
2022/04/03 06:01:22;;;;;;;0.85;0.70;;;;;;;0.30;70.38;102516.22;5093563;27;96682;-35
2022/04/03 06:03:48;;;;;;;2.35;1.08;;;;;;;0.26;70.30;102500.19;5093560;27;96802;-36
2022/04/03 06:06:13;;;;;;;0.08;0.08;;;;;;;0.38;70.34;102513.59;5093553;27;106830;-35
2022/04/03 06:08:39;;;;;;;0.82;0.35;;;;;;;0.35;70.33;102517.13;5093542;27;98647;-35
2022/04/03 06:11:04;;;;;;;0.63;0.32;;;;;;;0.30;70.45;102505.56;5093396;27;96775;-35
2022/04/03 06:13:30;;;;;;;1.33;0.98;;;;;;;0.41;70.06;102518.97;5093291;27;96786;-35
2022/04/03 06:15:55;;;;;;;0.13;0.13;;;;;;;0.47;70.06;102518.13;5092159;27;117715;-35
2022/04/03 06:18:20;;;;;;;1.17;1.05;;;;;;;0.50;69.70;102519.06;5092618;27;126743;-35
2022/04/03 06:20:46;;;;;;;0.95;0.82;;;;;;;0.52;69.40;102522.59;5093365;27;96512;-35
2022/04/03 06:23:13;;;;;;;0.88;0.73;;;;;;;0.59;69.46;102520.88;5093075;27;96601;-35
2022/04/03 06:25:38;;;;;;;1.05;0.38;;;;;;;0.63;68.28;102520.91;5074653;27;101063;-35
2022/04/03 06:28:04;;;;;;;0.57;0.35;;;;;;;0.74;68.41;102530.72;5093476;27;97852;-35
2022/04/03 06:30:29;;;;;;;0.68;0.60;;;;;;;0.84;68.13;102530.81;5093490;27;96466;-35
2022/04/03 06:32:54;;;;;;;0.80;0.80;;;;;;;0.97;67.32;102533.53;5092846;27;121947;-35
2022/04/03 06:35:19;;;;;;;1.27;0.80;;;;;;;1.14;66.61;102539.84;5092464;27;119450;-35
2022/04/03 06:37:45;;;;;;;1.60;0.98;;;;;;;1.30;66.76;102538.16;5091729;27;127312;-35
2022/04/03 06:40:11;;;;;;;2.75;1.33;;;;;;;1.41;66.66;102532.88;5074065;27;96888;-35
2022/04/03 06:42:37;;;;;;;1.35;0.88;;;;;;;1.59;65.99;102529.34;5093400;27;96897;-35
2022/04/03 06:45:03;;;;;;;0.30;0.30;;;;;;;1.86;65.81;102540.09;5074383;27;101173;-35
2022/04/03 06:47:30;;;;;;;1.02;0.90;;;;;;;2.03;67.23;102526.78;5093174;27;97550;-35
2022/04/03 06:49:55;;;;;;;0.98;0.80;;;;;;;2.20;65.36;102517.88;5074145;27;96509;-35
2022/04/03 06:52:20;;;;;;;0.90;0.73;;;;;;;2.54;65.51;102538.34;5092969;27;96800;-35
2022/04/03 06:54:46;;;;;;;3.83;1.20;;;;;;;2.85;64.83;102538.28;5091857;27;127116;-35
2022/04/03 06:57:15;;;;;;;1.27;0.77;;;;;;;3.08;64.29;102529.31;5093315;27;97855;-35
2022/04/03 06:59:41;;;;;;;0.20;0.20;;;;;;;3.37;64.27;102538.13;5074209;27;96682;-35
2022/04/03 07:02:07;;;;;;;1.85;0.90;;;;;;;3.58;64.08;102528.22;5074750;27;96769;-35
2022/04/03 07:04:33;;;;;;;3.88;1.02;;;;;;;3.82;63.22;102527.16;5092366;27;97964;-35
2022/04/03 07:06:58;;;;;;;0.85;0.60;;;;;;;4.05;64.47;102532.34;5092652;27;97820;-35
2022/04/03 07:09:24;;;;;;;1.58;0.73;;;;;;;4.18;63.01;102528.69;5093985;27;96595;-35
2022/04/03 07:11:49;;;;;;;0.60;0.60;;;;;;;4.36;63.54;102524.06;5095640;27;111349;-35
2022/04/03 07:14:14;;;;;;;0.93;0.90;;;;;;;4.61;63.75;102533.69;5076693;27;127188;-35
2022/04/03 07:16:40;;;;;;;4.00;0.93;;;;;;;4.83;62.34;102538.84;5095758;27;112820;-35
2022/04/03 07:19:05;;;;;;;0.77;0.57;;;;;;;4.97;62.27;102536.91;5096331;27;96536;-35
2022/04/03 07:21:30;;;;;;;0.47;0.40;;;;;;;5.09;61.75;102528.69;5096770;27;96887;-35
2022/04/03 07:23:56;;;;;;;4.75;1.70;;;;;;;5.25;61.52;102524.03;5095568;27;109722;-35
2022/04/03 07:26:21;;;;;;;1.58;1.10;;;;;;;5.52;61.27;102536.22;5095903;27;99193;-35
2022/04/03 07:28:46;;;;;;;4.25;1.17;;;;;;;5.71;60.41;102544.03;5094669;27;122814;-35
2022/04/03 07:31:12;;;;;;;0.70;0.70;;;;;;;5.77;60.31;102533.22;5096520;27;96838;-35
2022/04/03 07:33:37;;;;;;;0.60;0.52;;;;;;;6.05;60.24;102541.75;5095672;27;99452;-35
2022/04/03 07:36:03;;;;;;;0.77;0.77;;;;;;;6.27;59.80;102531.56;5095453;27;109843;-36
2022/04/03 07:38:29;;;;;;;1.90;1.02;;;;;;;6.41;59.59;102536.69;5095658;27;96511;-35
2022/04/03 07:40:54;;;;;;;0.52;0.52;;;;;;;6.45;59.52;102530.34;5096491;27;96844;-35
2022/04/03 07:43:19;;;;;;;0.50;0.40;;;;;;;6.51;58.84;102530.25;5094552;27;128171;-35
2022/04/03 07:45:46;;;;;;;0.65;0.65;;;;;;;6.67;58.18;102528.16;5095357;27;118020;-35
2022/04/03 07:48:12;;;;;;;1.35;0.50;;;;;;;6.63;58.22;102529.16;5077240;27;96599;-35
2022/04/03 07:50:37;;;;;;;1.42;0.47;;;;;;;6.89;57.88;102522.38;5095663;27;96800;-35
2022/04/03 07:53:04;;;;;;;0.52;0.45;;;;;;;6.90;57.78;102530.44;5094391;27;99365;-35
2022/04/03 07:55:29;;;;;;;0.93;0.60;;;;;;;6.59;58.55;102530.13;5095661;27;97782;-36
2022/04/03 07:57:54;;;;;;;1.70;0.65;;;;;;;6.40;58.97;102529.56;5094838;27;96658;-35
2022/04/03 08:00:20;;;;;;;1.52;0.75;;;;;;;6.46;59.17;102525.84;5094208;27;122721;-36
2022/04/03 08:02:45;;;;;;;1.02;0.68;;;;;;;6.42;59.22;102522.34;5093516;27;126461;-36
2022/04/03 08:05:11;;;;;;;1.02;0.63;;;;;;;6.41;59.14;102533.13;5094966;27;99169;-35
2022/04/03 08:07:44;;;;;;;2.78;1.13;;;;;;;6.75;58.80;102539.69;5095727;27;96744;-35
2022/04/03 08:10:22;;;;;;;0.55;0.38;;;;;;;7.05;58.02;102536.44;5076730;27;97015;-35
2022/04/03 08:12:49;;;;;;;0.50;0.35;;;;;;;7.32;57.60;102525.13;5094398;27;124011;-36
2022/04/03 08:15:16;;;;;;;0.20;0.20;;;;;;;7.52;56.84;102531.88;5076573;27;101055;-36
2022/04/03 08:17:43;;;;;;;0.88;0.60;;;;;;;7.69;56.59;102535.09;5075165;27;96829;-35
2022/04/03 08:20:10;;;;;;;0.47;0.25;;;;;;;7.82;56.46;102536.59;5076127;27;97076;-36
2022/04/03 08:22:37;;;;;;;1.27;0.80;;;;;;;8.02;55.97;102535.25;5075312;27;100860;-36
2022/04/03 08:25:03;;;;;;;0.90;0.60;;;;;;;8.11;55.54;102531.44;5094550;27;99175;-36
2022/04/03 08:27:47;;;;;;;0.28;0.20;;;;;;;8.32;54.90;102533.63;5076093;27;97050;-36
2022/04/03 08:30:16;;;;;;;0.38;0.25;;;;;;;8.39;54.85;102539.72;5094474;27;96681;-36
2022/04/03 08:32:42;;;;;;;6.10;0.40;;;;;;;8.43;54.53;102527.97;5076283;27;100695;-36
2022/04/03 08:35:08;;;;;;;2.63;0.65;;;;;;;8.28;54.03;102530.09;5095657;27;97237;-35
2022/04/03 08:37:34;;;;;;;0.32;0.22;;;;;;;8.03;54.37;102532.53;5095292;27;96600;-34
2022/04/03 08:39:59;;;;;;;0.25;0.13;;;;;;;7.80;55.51;102538.44;5095039;27;96903;-35
2022/04/03 08:42:25;;;;;;;0.25;0.20;;;;;;;7.58;56.06;102539.81;5093418;27;119886;-35
2022/04/03 08:44:50;;;;;;;0.38;0.35;;;;;;;7.50;56.43;102537.31;5094858;27;96855;-36
2022/04/03 08:47:20;;;;;;;0.68;0.30;;;;;;;7.26;55.43;102527.94;5093808;27;121906;-35
2022/04/03 08:49:46;;;;;;;0.20;0.20;;;;;;;7.46;56.23;102538.31;5076220;27;96866;-36
2022/04/03 08:52:13;;;;;;;1.25;0.30;;;;;;;7.64;55.94;102537.88;5075911;27;100824;-35
2022/04/03 08:54:39;;;;;;;0.00;0.00;;;;;;;7.75;55.86;102529.56;5076138;27;100933;-35
2022/04/03 08:57:04;;;;;;;0.00;0.00;;;;;;;8.04;54.86;102549.59;5076237;27;96711;-36
2022/04/03 08:59:30;;;;;;;6.22;0.20;;;;;;;8.07;55.06;102528.81;5076287;27;96885;-35
2022/04/03 09:01:55;;;;;;;0.95;0.32;;;;;;;8.22;54.55;102542.84;5093488;27;123291;-36
2022/04/03 09:04:23;;;;;;;0.80;0.40;;;;;;;8.27;54.53;102543.63;5094260;27;97429;-36
2022/04/03 09:06:56;;;;;;;0.20;0.10;;;;;;;8.32;54.35;102530.00;5075568;27;97139;-35
2022/04/03 09:09:23;;;;;;;0.43;0.20;;;;;;;8.41;54.38;102533.41;5075728;27;97259;-35
2022/04/03 09:12:18;;;;;;;0.10;0.10;;;;;;;8.34;54.05;102531.75;5075377;27;100869;-36
2022/04/03 09:14:52;;;;;;;0.03;0.00;;;;;;;8.21;54.78;102536.56;5075602;27;98921;-35
2022/04/03 09:17:38;;;;;;;0.00;0.00;;;;;;;8.00;54.88;102535.28;5075962;27;96640;-34
2022/04/03 09:20:06;;;;;;;0.22;0.08;;;;;;;7.80;54.83;102532.16;5094093;27;96797;-35
2022/04/03 09:22:35;;;;;;;0.05;0.03;;;;;;;7.69;55.04;102534.22;5075406;27;101115;-36
2022/04/03 09:25:00;;;;;;;0.30;0.20;;;;;;;7.51;55.16;102533.69;5075932;27;101205;-35
2022/04/03 09:27:26;;;;;;;1.02;0.40;;;;;;;7.45;56.11;102525.72;5094454;27;96460;-35
2022/04/03 09:30:07;;;;;;;0.10;0.10;;;;;;;7.44;55.89;102519.47;5094377;27;96833;-35
2022/04/03 09:32:33;;;;;;;0.20;0.10;;;;;;;7.40;56.08;102528.53;5092807;27;97871;-35
2022/04/03 09:34:59;;;;;;;0.47;0.25;;;;;;;7.20;55.97;102525.38;5074907;27;101095;-35
2022/04/03 09:37:26;;;;;;;0.75;0.20;;;;;;;6.98;56.43;102524.91;5094222;27;96445;-35
2022/04/03 09:39:51;;;;;;;0.95;0.50;;;;;;;6.86;56.76;102526.00;5093964;27;96705;-35
2022/04/03 09:42:17;;;;;;;0.32;0.32;;;;;;;6.75;57.21;102525.34;5094006;27;97954;-34
2022/04/03 09:44:44;;;;;;;0.10;0.10;;;;;;;6.72;57.71;102533.47;5093975;27;97842;-35
2022/04/03 09:47:11;;;;;;;1.13;0.55;;;;;;;6.74;57.86;102532.53;5075244;27;96518;-35
2022/04/03 09:49:37;;;;;;;0.03;0.03;;;;;;;6.72;56.83;102520.91;5075601;27;96838;-35
2022/04/03 09:52:03;;;;;;;0.70;0.30;;;;;;;6.80;57.21;102524.34;5093672;27;97411;-35
2022/04/03 09:54:28;;;;;;;0.30;0.30;;;;;;;6.89;57.24;102509.81;5075144;27;100798;-35
2022/04/03 09:56:53;;;;;;;0.10;0.10;;;;;;;7.15;56.39;102513.78;5092705;27;113555;-35
2022/04/03 09:59:19;;;;;;;0.00;0.00;;;;;;;7.19;56.24;102507.41;5093568;27;104404;-35
2022/04/03 10:01:44;;;;;;;0.85;0.28;;;;;;;7.35;55.64;102511.56;5093415;27;109383;-35
2022/04/03 10:04:13;;;;;;;0.30;0.20;;;;;;;7.44;55.75;102511.38;5093083;27;98713;-35
2022/04/03 10:06:39;;;;;;;0.10;0.10;;;;;;;7.60;55.59;102505.63;5074971;27;96629;-35
2022/04/03 10:09:07;;;;;;;0.10;0.10;;;;;;;7.58;55.14;102510.16;5075226;27;96807;-35
2022/04/03 10:11:33;;;;;;;0.00;0.00;;;;;;;7.40;55.92;102509.66;5074517;27;99440;-35
2022/04/03 10:13:58;;;;;;;0.00;0.00;;;;;;;7.37;55.81;102517.81;5093852;27;97829;-35
2022/04/03 10:16:24;;;;;;;0.00;0.00;;;;;;;7.21;55.69;102522.63;5093349;27;96531;-36
2022/04/03 10:18:50;;;;;;;1.15;0.38;;;;;;;7.13;56.21;102511.13;5093656;27;96781;-35
2022/04/03 10:21:38;;;;;;;0.15;0.05;;;;;;;7.74;54.99;102518.81;5074301;27;100720;-35
2022/04/03 10:24:15;;;;;;;0.03;0.03;;;;;;;8.01;54.04;102518.19;5093257;27;99166;-35
2022/04/03 10:26:42;;;;;;;0.47;0.25;;;;;;;7.84;53.92;102517.66;5074730;27;96805;-35
2022/04/03 10:29:10;;;;;;;0.65;0.17;;;;;;;7.62;55.07;102501.97;5074558;27;96868;-36
2022/04/03 10:31:39;;;;;;;0.22;0.13;;;;;;;7.55;53.96;102507.53;5074590;27;100824;-35
2022/04/03 10:34:05;;;;;;;0.03;0.00;;;;;;;7.43;54.67;102506.00;5074531;27;101047;-35
2022/04/03 10:36:30;;;;;;;0.00;0.00;;;;;;;7.34;55.64;102511.59;5074725;27;96719;-35
2022/04/03 10:39:03;;;;;;;0.65;0.20;;;;;;;7.28;55.40;102514.44;5093425;27;96791;-35
2022/04/03 10:41:37;;;;;;;0.68;0.38;;;;;;;7.25;55.90;102511.81;5074323;27;101458;-35
2022/04/03 10:44:22;;;;;;;0.75;0.30;;;;;;;7.35;55.91;102510.69;5057800;27;100775;-36
2022/04/03 10:47:05;;;;;;;0.10;0.10;;;;;;;7.53;56.01;102507.59;5096536;27;96463;-35
2022/04/03 10:49:37;;;;;;;2.03;0.03;;;;;;;7.74;55.30;102499.94;5078141;27;96787;-35
2022/04/03 10:52:04;;;;;;;0.77;0.30;;;;;;;7.96;55.42;102500.31;5095906;27;99306;-36
2022/04/03 10:54:31;;;;;;;0.20;0.00;;;;;;;8.01;54.92;102501.09;5077993;27;100931;-35
2022/04/03 10:57:31;;;;;;;0.00;0.00;;;;;;;7.97;54.68;102491.31;5078050;27;96827;-35
2022/04/03 11:00:14;;;;;;;0.00;0.00;;;;;;;7.87;54.64;102493.34;5096449;27;96880;-34
2022/04/03 11:02:40;;;;;;;0.15;0.15;;;;;;;7.79;55.20;102487.22;5096284;27;99211;-35
2022/04/03 11:05:26;;;;;;;0.00;0.00;;;;;;;7.75;55.01;102486.41;5096685;27;97776;-35
2022/04/03 11:07:55;;;;;;;0.00;0.00;;;;;;;7.66;55.46;102474.03;5096451;27;96578;-35
2022/04/03 11:10:48;;;;;;;0.08;0.00;;;;;;;7.69;55.19;102486.53;5077388;27;96856;-35
2022/04/03 11:13:18;;;;;;;0.10;0.10;;;;;;;7.60;54.71;102482.28;5077189;27;101144;-36
2022/04/03 11:16:03;;;;;;;0.00;0.00;;;;;;;7.53;54.70;102491.41;5077473;27;100895;-35
2022/04/03 11:18:33;;;;;;;0.10;0.00;;;;;;;7.48;54.88;102482.53;5095640;27;96729;-35
2022/04/03 11:21:18;;;;;;;0.28;0.20;;;;;;;7.35;55.39;102475.66;5077967;27;96817;-35
2022/04/03 11:23:55;;;;;;;0.25;0.17;;;;;;;7.35;56.54;102486.44;5077395;27;100760;-35
2022/04/03 11:26:22;;;;;;;1.08;0.30;;;;;;;7.25;56.55;102477.66;5077430;27;100871;-35
2022/04/03 11:28:48;;;;;;;0.20;0.20;;;;;;;7.20;56.53;102485.84;5077593;27;96644;-35
2022/04/03 11:31:14;;;;;;;0.55;0.20;;;;;;;7.19;56.80;102470.56;5077907;27;96867;-35